Time;durP1;ratioP1;P1;durP2;ratioP2;P2;SDS_P1;SDS_P2;PMS_P1;PMS_P2;Temp;Humidity;BMP_temperature;BMP_pressure;BME280_temperature;BME280_humidity;BME280_pressure;Samples;Min_cycle;Max_cycle;Signal;HPM_P1;HPM_P2
2022/12/10 00:01:08;;;;;;;;;13.67;10.33;;;;;5.24;92.38;97881.81;5016647;28;45373;-76
2022/12/10 00:03:34;;;;;;;;;14.67;14.67;;;;;5.20;92.45;97875.00;5016172;28;45566;-76
2022/12/10 00:06:06;;;;;;;;;15.00;13.67;;;;;5.20;92.35;97887.22;5016083;28;46371;-76
2022/12/10 00:08:33;;;;;;;;;14.33;13.33;;;;;5.16;92.69;97891.75;5016583;28;45419;-76
2022/12/10 00:10:59;;;;;;;;;18.00;16.33;;;;;5.12;93.17;97884.91;5016277;28;45298;-76
2022/12/10 00:13:24;;;;;;;;;19.00;16.67;;;;;5.09;93.50;97890.25;5016483;28;45547;-76
2022/12/10 00:15:50;;;;;;;;;16.33;16.33;;;;;5.07;93.41;97886.00;5016181;28;45888;-76
2022/12/10 00:18:15;;;;;;;;;17.33;17.00;;;;;5.06;93.28;97884.28;5048228;28;45520;-77
2022/12/10 00:20:41;;;;;;;;;17.00;13.67;;;;;5.03;93.57;97880.03;5016744;28;45548;-77
2022/12/10 00:23:06;;;;;;;;;17.33;15.33;;;;;5.04;93.73;97883.50;5014812;28;45657;-76
2022/12/10 00:25:32;;;;;;;;;14.00;12.33;;;;;5.02;93.77;97883.56;5014212;28;45572;-76
2022/12/10 00:27:57;;;;;;;;;13.00;13.00;;;;;5.01;93.50;97883.63;5014696;28;45547;-76
2022/12/10 00:30:23;;;;;;;;;16.50;13.00;;;;;4.99;93.06;97877.59;5015323;28;45619;-76
2022/12/10 00:32:48;;;;;;;;;18.33;14.67;;;;;4.97;92.86;97882.03;5016412;28;45483;-77
2022/12/10 00:35:14;;;;;;;;;13.33;13.00;;;;;4.95;92.07;97881.25;5014876;28;46319;-76
2022/12/10 00:37:39;;;;;;;;;13.33;12.33;;;;;4.91;91.64;97883.09;5009847;28;45797;-77
2022/12/10 00:40:06;;;;;;;;;9.33;6.67;;;;;4.84;91.32;97885.13;5040430;28;45468;-77
2022/12/10 00:42:31;;;;;;;;;19.67;17.00;;;;;4.78;91.16;97876.66;5039686;28;45527;-77
2022/12/10 00:44:56;;;;;;;;;17.67;14.33;;;;;4.73;91.05;97875.94;5005879;28;45910;-77
2022/12/10 00:47:22;;;;;;;;;16.33;14.67;;;;;4.69;91.12;97875.19;5007335;28;45741;-76
2022/12/10 00:49:47;;;;;;;;;16.67;16.67;;;;;4.67;91.35;97874.44;5011061;28;45426;-77
2022/12/10 00:52:13;;;;;;;;;14.00;12.67;;;;;4.66;91.33;97870.13;5007899;28;45476;-77
2022/12/10 00:54:38;;;;;;;;;18.33;12.67;;;;;4.65;91.38;97865.81;5013164;28;46123;-76
2022/12/10 00:57:03;;;;;;;;;16.67;15.33;;;;;4.63;91.25;97869.38;5012103;28;45479;-77
2022/12/10 00:59:29;;;;;;;;;14.67;13.00;;;;;4.63;91.32;97872.00;5008212;28;45399;-76
2022/12/10 01:01:54;;;;;;;;;13.67;12.00;;;;;4.62;91.35;97872.88;5015121;28;45450;-76
2022/12/10 01:04:19;;;;;;;;;13.67;13.67;;;;;4.61;91.34;97873.78;5004265;28;47765;-77
2022/12/10 01:06:53;;;;;;;;;1.00;0.67;;;;;4.64;91.69;97871.94;5009281;28;45390;-76
2022/12/10 01:09:25;;;;;;;;;18.00;16.00;;;;;4.62;91.41;97868.53;4999974;28;45457;-77
2022/12/10 01:11:52;;;;;;;;;17.67;14.33;;;;;4.63;91.16;97874.59;5010548;28;45362;-75
2022/12/10 01:14:23;;;;;;;;;16.00;14.67;;;;;4.61;91.54;97868.56;5005093;28;46518;-75
2022/12/10 01:16:53;;;;;;;;;17.33;15.67;;;;;4.62;91.13;97870.28;5005468;28;45464;-76
2022/12/10 01:19:18;;;;;;;;;14.67;12.67;;;;;4.61;91.19;97869.44;5004026;28;45452;-75
2022/12/10 01:21:44;;;;;;;;;18.33;16.67;;;;;4.62;91.14;97872.88;5003158;28;45514;-76
2022/12/10 01:24:09;;;;;;;;;21.67;18.00;;;;;4.61;91.03;97872.03;5008452;28;46363;-75
2022/12/10 01:26:36;;;;;;;;;17.67;14.33;;;;;4.62;91.15;97871.13;5005983;28;45491;-75
2022/12/10 01:29:03;;;;;;;;;13.33;13.33;;;;;4.63;91.03;97878.06;5002881;28;45421;-75
2022/12/10 01:31:35;;;;;;;;;15.00;12.67;;;;;4.61;91.01;97871.19;5007522;28;45425;-75
2022/12/10 01:34:03;;;;;;;;;14.33;14.33;;;;;4.61;90.93;97879.00;5012643;28;46713;-76
2022/12/10 01:36:40;;;;;;;;;20.33;15.33;;;;;4.59;91.36;97883.44;5012096;28;45511;-77
2022/12/10 01:39:09;;;;;;;;;13.67;11.00;;;;;4.57;90.54;97891.31;5034332;28;45837;-77
2022/12/10 01:41:44;;;;;;;;;15.67;13.33;;;;;4.52;90.75;97880.22;5014005;28;45546;-76
2022/12/10 01:44:10;;;;;;;;;16.67;14.67;;;;;4.49;90.61;97881.16;5008645;28;47824;-76
2022/12/10 01:46:41;;;;;;;;;12.33;12.33;;;;;4.49;90.98;97880.31;5045053;28;45389;-76
2022/12/10 01:49:09;;;;;;;;;19.67;16.33;;;;;4.46;91.14;97883.88;5000970;28;45413;-77
2022/12/10 01:51:37;;;;;;;;;15.67;14.33;;;;;4.44;90.86;97883.09;5029199;28;45361;-77
2022/12/10 01:54:06;;;;;;;;;21.00;11.33;;;;;4.43;91.56;97888.34;5005445;28;46596;-77
2022/12/10 01:56:37;;;;;;;;;17.33;15.67;;;;;4.42;91.41;97887.50;5005680;28;45470;-76
2022/12/10 01:59:04;;;;;;;;;15.00;14.33;;;;;4.41;91.18;97891.00;5002918;28;45488;-77
2022/12/10 02:01:40;;;;;;;;;13.67;12.00;;;;;4.38;91.38;97883.28;5004288;28;45464;-76
2022/12/10 02:04:25;;;;;;;;;22.00;18.00;;;;;4.36;91.83;97895.53;5007019;28;45700;-76
2022/12/10 02:06:56;;;;;;;;;16.33;15.00;;;;;4.32;92.07;97891.34;5007183;28;45433;-76
2022/12/10 02:09:28;;;;;;;;;16.00;13.33;;;;;4.28;91.75;97900.19;5007835;28;45488;-75
2022/12/10 02:12:04;;;;;;;;;17.67;14.33;;;;;4.26;92.28;97895.91;5014482;28;45371;-77
2022/12/10 02:14:49;;;;;;;;;16.00;12.00;;;;;4.26;91.96;97901.13;4998763;28;46424;-77
2022/12/10 02:17:24;;;;;;;;;15.00;12.67;;;;;4.27;92.63;97903.69;5009625;28;45690;-77
2022/12/10 02:19:52;;;;;;;;;15.00;12.67;;;;;4.28;92.29;97904.53;5003074;28;45510;-76
2022/12/10 02:22:20;;;;;;;;;18.33;14.00;;;;;4.30;92.64;97902.72;5007299;28;45586;-77
2022/12/10 02:24:50;;;;;;;;;18.33;14.33;;;;;4.28;92.15;97908.00;5001766;28;45493;-77
2022/12/10 02:27:23;;;;;;;;;20.67;18.67;;;;;4.26;91.61;97907.19;5007677;28;45555;-77
2022/12/10 02:29:51;;;;;;;;;20.00;14.33;;;;;4.22;92.05;97909.06;5003867;28;45386;-77
2022/12/10 02:32:23;;;;;;;;;16.67;13.67;;;;;4.22;91.87;97906.44;5022894;28;45706;-78
2022/12/10 02:35:00;;;;;;;;;16.33;15.33;;;;;4.19;92.32;97906.53;5005614;28;45440;-77
2022/12/10 02:37:35;;;;;;;;;15.00;12.33;;;;;4.18;92.21;97904.03;5004208;28;45424;-75
2022/12/10 02:40:09;;;;;;;;;19.67;16.33;;;;;4.18;92.33;97906.63;5002852;28;45467;-75
2022/12/10 02:42:39;;;;;;;;;18.00;15.33;;;;;4.16;92.18;97906.69;5009435;28;45408;-77
2022/12/10 02:45:06;;;;;;;;;16.67;14.67;;;;;4.14;92.15;97911.09;5007689;28;45577;-74
2022/12/10 02:47:32;;;;;;;;;20.00;17.33;;;;;4.13;92.08;97905.91;5009585;28;45483;-77
2022/12/10 02:49:58;;;;;;;;;14.67;11.00;;;;;4.12;92.22;97906.81;5012780;28;45451;-77
2022/12/10 02:52:25;;;;;;;;;16.00;15.33;;;;;4.09;92.27;97904.31;5006140;28;45563;-77
2022/12/10 02:54:51;;;;;;;;;22.00;17.00;;;;;4.10;92.44;97900.81;5001325;28;45465;-77
2022/12/10 02:57:37;;;;;;;;;17.67;16.33;;;;;4.08;92.52;97893.03;5003039;28;45485;-76
2022/12/10 03:00:16;;;;;;;;;17.33;17.33;;;;;4.08;93.32;97898.25;5011319;28;45467;-76
2022/12/10 03:03:02;;;;;;;;;19.67;13.67;;;;;4.06;93.78;97896.59;5004948;28;45484;-77
2022/12/10 03:05:33;;;;;;;;;12.33;10.67;;;;;3.98;94.46;97891.66;5030367;28;47335;-76
2022/12/10 03:08:09;;;;;;;;;14.67;12.33;;;;;3.92;94.21;97893.59;5000220;28;45510;-77
2022/12/10 03:10:59;;;;;;;;;17.33;11.67;;;;;3.85;94.95;97893.78;5004769;28;45488;-77
2022/12/10 03:13:36;;;;;;;;;19.67;16.00;;;;;3.79;95.17;97888.78;5001969;28;45960;-78
2022/12/10 03:16:04;;;;;;;;;15.67;13.67;;;;;3.74;95.14;97885.47;5004559;28;46681;-78
2022/12/10 03:18:34;;;;;;;;;17.67;14.67;;;;;3.74;95.72;97874.19;5004430;28;45499;-78
2022/12/10 03:21:03;;;;;;;;;17.00;14.33;;;;;3.70;95.33;97880.41;5009842;28;45380;-78
2022/12/10 03:23:31;;;;;;;;;12.67;11.67;;;;;3.68;94.97;97879.63;5011819;28;45568;-78
2022/12/10 03:25:59;;;;;;;;;15.67;15.00;;;;;3.65;95.18;97877.97;5013383;28;45504;-77
2022/12/10 03:28:26;;;;;;;;;12.00;11.00;;;;;3.67;95.66;97889.19;5008903;28;45364;-77
2022/12/10 03:30:53;;;;;;;;;13.67;11.33;;;;;3.66;94.59;97881.44;5007959;28;45459;-77
2022/12/10 03:33:20;;;;;;;;;16.33;12.67;;;;;3.66;94.34;97895.31;5008640;28;45662;-77
2022/12/10 03:35:46;;;;;;;;;15.33;14.00;;;;;3.63;94.30;97887.59;5003756;28;45803;-77
2022/12/10 03:38:13;;;;;;;;;11.33;10.33;;;;;3.63;93.88;97889.34;5009092;28;45475;-77
2022/12/10 03:40:40;;;;;;;;;11.67;8.67;;;;;3.63;94.35;97881.53;5006330;28;45365;-78
2022/12/10 03:43:05;;;;;;;;;12.33;10.33;;;;;3.61;93.72;97878.97;5008673;28;45465;-77
2022/12/10 03:45:31;;;;;;;;;7.67;6.00;;;;;3.64;93.93;97891.03;5013620;28;46587;-77
2022/12/10 03:47:56;;;;;;;;;11.00;9.67;;;;;3.64;93.67;97881.47;5045306;28;45529;-77
2022/12/10 03:50:22;;;;;;;;;9.67;8.33;;;;;3.64;92.95;97891.03;5036757;28;45419;-77
2022/12/10 03:52:47;;;;;;;;;12.67;12.00;;;;;3.64;93.42;97885.84;5011757;28;45563;-77
2022/12/10 03:55:12;;;;;;;;;10.00;8.33;;;;;3.62;93.41;97895.44;5013313;28;46613;-77
2022/12/10 03:57:38;;;;;;;;;19.33;12.00;;;;;3.56;93.60;97909.50;5011530;28;45455;-78
2022/12/10 04:00:05;;;;;;;;;19.00;16.00;;;;;3.52;93.90;97897.47;5013457;28;45476;-77
2022/12/10 04:02:30;;;;;;;;;16.67;16.00;;;;;3.49;94.03;97903.66;5005783;28;45487;-76
2022/12/10 04:04:56;;;;;;;;;18.33;16.33;;;;;3.46;95.04;97926.34;5011166;28;45525;-77
2022/12/10 04:07:21;;;;;;;;;15.00;13.33;;;;;3.41;95.00;97910.84;5033274;28;45497;-77
2022/12/10 04:09:47;;;;;;;;;19.33;14.67;;;;;3.39;95.11;97936.09;5008679;28;45345;-76
2022/12/10 04:12:12;;;;;;;;;5.00;5.00;;;;;3.36;95.73;97923.16;5005498;28;45548;-77
2022/12/10 04:17:21;;;;;;;;;18.00;16.33;;;;;3.23;95.72;97947.00;5012434;28;45361;-77
2022/12/10 04:19:47;;;;;;;;;15.33;12.00;;;;;3.19;96.17;97933.22;5008818;28;45389;-77
2022/12/10 04:26:51;;;;;;;;;9.67;6.00;;;;;3.12;96.42;97943.00;5011580;28;45421;-77
2022/12/10 04:27:51;;;;;;;;;13.33;13.33;;;;;3.09;96.52;97937.00;5010660;28;45444;-77
2022/12/10 04:30:16;;;;;;;;;14.00;12.00;;;;;3.03;96.56;97955.41;5007339;28;45512;-76
2022/12/10 04:32:41;;;;;;;;;11.67;11.00;;;;;3.00;96.77;97940.75;4998399;28;45512;-77
2022/12/10 04:35:07;;;;;;;;;7.67;3.00;;;;;2.97;96.87;97953.00;5003496;28;46420;-76
2022/12/10 04:37:33;;;;;;;;;11.67;10.00;;;;;2.92;96.40;97932.28;5001633;28;45377;-77
2022/12/10 04:39:58;;;;;;;;;11.00;9.00;;;;;2.87;96.75;97949.78;5007154;28;45325;-77
2022/12/10 04:42:24;;;;;;;;;12.00;12.00;;;;;2.87;97.18;97949.78;5010116;28;45635;-76
2022/12/10 04:44:49;;;;;;;;;12.33;9.00;;;;;2.86;96.67;97944.63;5041817;28;45596;-76
2022/12/10 04:47:15;;;;;;;;;11.33;10.00;;;;;2.85;96.94;97963.75;5005133;28;45421;-76
2022/12/10 04:49:40;;;;;;;;;11.33;10.67;;;;;2.81;97.14;97960.38;5004414;28;45450;-76
2022/12/10 04:52:08;;;;;;;;;7.33;7.00;;;;;2.83;96.10;97960.34;5009540;28;45654;-76
2022/12/10 04:54:33;;;;;;;;;10.33;9.67;;;;;2.86;95.82;97987.13;5012667;28;45420;-76
2022/12/10 04:56:59;;;;;;;;;17.33;11.67;;;;;2.86;95.28;97981.91;5012898;28;45487;-76
2022/12/10 04:59:24;;;;;;;;;4.00;3.67;;;;;2.88;94.70;97980.13;5009104;28;45975;-76
2022/12/10 05:01:50;;;;;;;;;9.00;9.00;;;;;2.92;94.85;97971.34;5013871;28;45445;-76
2022/12/10 05:04:18;;;;;;;;;6.00;5.00;;;;;2.91;95.13;97967.03;4998280;28;46071;-76
2022/12/10 05:06:44;;;;;;;;;7.67;6.33;;;;;2.90;95.26;97978.34;4996433;28;45428;-76
2022/12/10 05:09:11;;;;;;;;;7.00;5.33;;;;;2.90;95.44;98000.91;4999662;28;45392;-76
2022/12/10 05:11:37;;;;;;;;;10.00;10.00;;;;;2.88;95.34;97990.53;4999306;28;45549;-76
2022/12/10 05:14:03;;;;;;;;;8.33;8.33;;;;;2.84;95.68;97988.94;5002471;28;45555;-76
2022/12/10 05:16:31;;;;;;;;;12.33;11.00;;;;;2.85;95.55;97997.59;5009672;28;45373;-76
2022/12/10 05:18:57;;;;;;;;;16.67;11.00;;;;;2.86;94.35;98012.28;5005780;28;45472;-76
2022/12/10 05:23:27;;;;;;;;;11.00;9.00;;;;;2.86;93.66;98010.53;5005294;28;45382;-76
2022/12/10 05:24:10;;;;;;;;;6.67;6.00;;;;;2.84;93.71;98009.75;5003358;28;46014;-76
2022/12/10 05:26:36;;;;;;;;;17.00;14.33;;;;;2.84;93.72;98011.50;5007427;28;45655;-76
2022/12/10 05:29:01;;;;;;;;;10.33;7.00;;;;;2.84;93.92;97999.34;5010448;28;45571;-76
2022/12/10 05:31:29;;;;;;;;;9.00;6.67;;;;;2.82;93.63;98008.94;5009140;28;45735;-76
2022/12/10 05:33:56;;;;;;;;;4.33;4.33;;;;;2.82;93.33;97995.94;5010669;28;45440;-76
2022/12/10 05:36:28;;;;;;;;;11.33;10.00;;;;;2.82;93.52;98005.47;5013247;28;45525;-76
2022/12/10 05:38:55;;;;;;;;;3.00;3.00;;;;;2.77;93.25;98022.06;4996995;28;45494;-76
2022/12/10 05:41:29;;;;;;;;;7.00;6.00;;;;;2.72;93.38;98015.25;5010276;28;45454;-76
2022/12/10 05:43:56;;;;;;;;;7.00;7.00;;;;;2.64;94.72;98028.50;5010582;28;45756;-76
2022/12/10 05:46:24;;;;;;;;;3.67;2.67;;;;;2.58;94.65;98039.03;5011129;28;45439;-77
2022/12/10 05:48:50;;;;;;;;;13.67;6.33;;;;;2.54;94.81;98037.41;5000378;28;45434;-76
2022/12/10 05:51:19;;;;;;;;;13.00;10.00;;;;;2.54;94.37;98049.56;5010413;28;45533;-76
2022/12/10 05:53:44;;;;;;;;;9.67;6.33;;;;;2.52;93.79;98023.59;5026279;28;47756;-76
2022/12/10 05:56:18;;;;;;;;;6.67;3.67;;;;;2.55;93.71;98027.84;5009239;28;45412;-77
2022/12/10 05:58:44;;;;;;;;;5.67;5.67;;;;;2.58;93.52;98035.59;5012177;28;45484;-77
2022/12/10 06:01:13;;;;;;;;;6.00;6.00;;;;;2.60;93.34;98020.78;5011682;28;45450;-76
2022/12/10 06:03:38;;;;;;;;;6.67;6.33;;;;;2.59;93.56;98040.75;5005461;28;46237;-76
2022/12/10 06:06:04;;;;;;;;;10.33;9.67;;;;;2.61;93.53;98040.72;4996666;28;45430;-75
2022/12/10 06:08:30;;;;;;;;;10.00;5.67;;;;;2.56;93.82;98025.22;4996348;28;45380;-75
2022/12/10 06:10:57;;;;;;;;;19.67;10.67;;;;;2.54;93.71;98041.75;4999628;28;45570;-75
2022/12/10 06:13:23;;;;;;;;;6.00;6.00;;;;;2.49;94.25;98069.66;4996437;28;45516;-75
2022/12/10 06:15:48;;;;;;;;;12.00;8.67;;;;;2.45;94.14;98032.44;5012401;28;45524;-75
2022/12/10 06:18:13;;;;;;;;;6.33;5.67;;;;;2.43;94.48;98050.69;5003557;28;45414;-76
2022/12/10 06:20:39;;;;;;;;;9.00;6.33;;;;;2.40;94.63;98039.50;5038404;28;45507;-76
2022/12/10 06:23:06;;;;;;;;;12.00;10.67;;;;;2.45;93.96;98040.25;5003691;28;45667;-75
2022/12/10 06:25:31;;;;;;;;;10.00;6.00;;;;;2.45;93.76;98041.13;5008467;28;45428;-75
2022/12/10 06:27:57;;;;;;;;;9.33;9.00;;;;;2.49;93.75;98054.91;5003338;28;45588;-75
2022/12/10 06:30:23;;;;;;;;;4.33;3.00;;;;;2.51;93.20;98071.31;5009515;28;45482;-76
2022/12/10 06:32:48;;;;;;;;;6.33;6.33;;;;;2.52;92.53;98074.75;5007627;28;46300;-76
2022/12/10 06:35:14;;;;;;;;;5.33;2.67;;;;;2.51;92.75;98078.28;5033114;28;45770;-75
2022/12/10 06:37:39;;;;;;;;;3.00;3.00;;;;;2.56;92.26;98125.81;5009906;28;45405;-76
2022/12/10 06:40:05;;;;;;;;;1.67;1.67;;;;;2.63;90.91;98067.56;4996411;28;45437;-75
2022/12/10 06:42:30;;;;;;;;;9.00;6.00;;;;;2.61;90.75;98070.19;4995505;28;46256;-75
2022/12/10 06:44:56;;;;;;;;;6.00;6.00;;;;;2.58;91.64;98085.00;4997822;28;45456;-75
2022/12/10 06:47:22;;;;;;;;;11.00;9.67;;;;;2.50;92.17;98098.22;5011272;28;45376;-76
2022/12/10 06:49:48;;;;;;;;;8.33;8.33;;;;;2.45;92.69;98085.31;5008334;28;45536;-76
2022/12/10 06:52:14;;;;;;;;;5.00;5.00;;;;;2.38;92.74;98086.34;5008079;28;45647;-76
2022/12/10 06:54:39;;;;;;;;;9.67;6.00;;;;;2.36;92.67;98082.06;5004984;28;45433;-75
2022/12/10 06:57:05;;;;;;;;;7.00;5.33;;;;;2.36;92.77;98139.28;5006847;28;45474;-76
2022/12/10 06:59:31;;;;;;;;;3.00;3.00;;;;;2.39;92.09;98089.81;5004388;28;45391;-75
2022/12/10 07:01:56;;;;;;;;;6.00;6.00;;;;;2.38;92.52;98095.91;5011011;28;45488;-75
2022/12/10 07:04:22;;;;;;;;;6.00;6.00;;;;;2.43;91.75;98074.09;5004355;28;45469;-75
2022/12/10 07:06:47;;;;;;;;;4.00;2.00;;;;;2.39;91.87;98090.66;5005695;28;45452;-75
2022/12/10 07:09:12;;;;;;;;;11.00;7.33;;;;;2.48;91.07;98117.38;5030883;28;45400;-75
2022/12/10 07:11:38;;;;;;;;;6.33;6.00;;;;;2.47;91.09;98113.91;5004832;28;45340;-75
2022/12/10 07:14:03;;;;;;;;;3.33;3.33;;;;;2.42;91.37;98098.41;5001848;28;45345;-76
2022/12/10 07:16:31;;;;;;;;;10.00;9.00;;;;;2.39;91.46;98105.41;5012656;28;45427;-76
2022/12/10 07:18:58;;;;;;;;;10.00;7.00;;;;;2.34;91.64;98082.16;5002378;28;45326;-76
2022/12/10 07:21:24;;;;;;;;;7.33;5.00;;;;;2.31;91.94;98112.56;5009938;28;46006;-76
2022/12/10 07:23:57;;;;;;;;;13.67;10.00;;;;;2.30;92.19;98106.50;5019629;28;45544;-76
2022/12/10 07:26:23;;;;;;;;;11.67;10.00;;;;;2.27;92.57;98113.50;4997017;28;45472;-76
2022/12/10 07:28:49;;;;;;;;;9.33;9.33;;;;;2.25;93.01;98097.09;5001740;28;45556;-76
2022/12/10 07:31:14;;;;;;;;;15.00;10.67;;;;;2.23;92.15;98099.72;4997210;28;46994;-76
2022/12/10 07:33:40;;;;;;;;;9.33;8.67;;;;;2.23;92.26;98145.66;5036185;28;45548;-76
2022/12/10 07:36:07;;;;;;;;;8.67;7.33;;;;;2.24;92.02;98118.78;5007864;28;45493;-76
2022/12/10 07:38:33;;;;;;;;;9.00;5.00;;;;;2.23;92.13;98138.72;5006305;28;45376;-76
2022/12/10 07:41:02;;;;;;;;;7.67;7.67;;;;;2.22;92.29;98111.00;5005079;28;45457;-77
2022/12/10 07:43:28;;;;;;;;;14.33;12.00;;;;;2.21;92.34;98124.03;4999060;28;45458;-76
2022/12/10 07:45:53;;;;;;;;;7.00;5.67;;;;;2.22;91.96;98131.81;5006859;28;45496;-76
2022/12/10 07:48:18;;;;;;;;;8.67;4.67;;;;;2.21;91.95;98134.44;5007549;28;45511;-77
2022/12/10 07:50:44;;;;;;;;;11.00;8.33;;;;;2.19;91.13;98137.06;5025055;28;47134;-76
2022/12/10 07:53:09;;;;;;;;;7.33;6.00;;;;;2.22;91.54;98130.97;5008984;28;45363;-76
2022/12/10 07:55:35;;;;;;;;;10.00;9.33;;;;;2.25;91.09;98134.34;5033856;28;45503;-77
2022/12/10 07:58:00;;;;;;;;;9.33;9.33;;;;;2.22;90.90;98130.97;4998027;28;45474;-78
2022/12/10 08:00:25;;;;;;;;;14.00;9.00;;;;;2.28;89.83;98128.22;5005194;28;45486;-77
2022/12/10 08:02:51;;;;;;;;;9.67;7.67;;;;;2.29;90.35;98172.41;5001438;28;45505;-77
2022/12/10 08:05:16;;;;;;;;;15.00;10.00;;;;;2.29;90.30;98140.34;5006093;28;45428;-76
2022/12/10 08:07:42;;;;;;;;;6.33;5.00;;;;;2.36;89.04;98160.94;5038541;28;45499;-76
2022/12/10 08:10:07;;;;;;;;;13.33;10.00;;;;;2.35;88.54;98197.41;5004188;28;45522;-76
2022/12/10 08:12:33;;;;;;;;;9.00;9.00;;;;;2.37;88.36;98170.47;5008252;28;45435;-76
2022/12/10 08:14:58;;;;;;;;;17.33;9.00;;;;;2.36;87.65;98189.56;5007257;28;45353;-77
2022/12/10 08:17:23;;;;;;;;;14.33;12.67;;;;;2.36;87.78;98160.94;5010272;28;45353;-76
2022/12/10 08:19:50;;;;;;;;;8.33;7.67;;;;;2.42;86.97;98166.03;5008878;28;45497;-77
2022/12/10 08:22:16;;;;;;;;;6.00;4.00;;;;;2.45;87.19;98181.56;5009071;28;45327;-77
2022/12/10 08:24:41;;;;;;;;;6.33;5.67;;;;;2.43;86.89;98178.16;4996754;28;45351;-77
2022/12/10 08:27:07;;;;;;;;;22.67;18.67;;;;;2.43;87.14;98174.69;5008859;28;45549;-77
2022/12/10 08:29:32;;;;;;;;;15.67;9.00;;;;;2.44;87.36;98163.38;5005765;28;45441;-77
2022/12/10 08:31:57;;;;;;;;;20.33;14.33;;;;;2.38;86.54;98184.31;5044955;28;45556;-77
2022/12/10 08:34:23;;;;;;;;;23.00;19.33;;;;;2.35;88.03;98163.59;5004977;28;45378;-77
2022/12/10 08:36:48;;;;;;;;;20.67;19.00;;;;;2.22;89.10;98194.22;5006974;28;45400;-77
2022/12/10 08:39:17;;;;;;;;;23.67;22.00;;;;;2.16;89.66;98216.91;5007199;28;46338;-77
2022/12/10 08:41:44;;;;;;;;;18.00;13.33;;;;;2.12;90.08;98182.31;5040237;28;45481;-77
2022/12/10 08:44:10;;;;;;;;;20.67;14.00;;;;;2.12;89.53;98230.84;5004631;28;45560;-77
2022/12/10 08:46:36;;;;;;;;;19.33;14.33;;;;;2.08;89.72;98191.06;5009972;28;45407;-76
2022/12/10 08:49:02;;;;;;;;;34.67;31.67;;;;;2.09;88.88;98190.19;5007798;28;45443;-76
2022/12/10 08:51:27;;;;;;;;;28.00;25.00;;;;;2.14;88.19;98218.69;5012306;28;45474;-77
2022/12/10 08:53:53;;;;;;;;;14.00;12.67;;;;;2.14;88.78;98286.28;5007537;28;45613;-76
2022/12/10 08:56:18;;;;;;;;;32.00;31.00;;;;;2.12;89.12;98207.44;5001391;28;45437;-76
2022/12/10 08:58:44;;;;;;;;;13.67;9.00;;;;;2.08;89.03;98243.91;4996626;28;46097;-74
2022/12/10 09:01:12;;;;;;;;;16.33;14.33;;;;;2.05;88.68;98240.50;5003736;28;45426;-77
2022/12/10 09:03:37;;;;;;;;;23.00;20.67;;;;;2.04;88.85;98255.25;4997362;28;45348;-74
2022/12/10 09:06:05;;;;;;;;;27.67;22.33;;;;;2.02;88.78;98254.41;5004793;28;45440;-74
2022/12/10 09:08:31;;;;;;;;;21.33;18.67;;;;;2.04;89.30;98264.78;5015411;28;48531;-74
2022/12/10 09:10:57;;;;;;;;;18.67;15.33;;;;;2.00;88.58;98251.03;5006946;28;45412;-75
2022/12/10 09:13:22;;;;;;;;;18.33;17.33;;;;;2.01;88.93;98275.28;5004812;28;45366;-76
2022/12/10 09:15:52;;;;;;;;;16.67;13.00;;;;;1.97;88.71;98240.69;5010672;28;45358;-76
2022/12/10 09:18:18;;;;;;;;;22.33;20.67;;;;;1.98;89.64;98278.78;5018829;28;46505;-76
2022/12/10 09:20:43;;;;;;;;;8.67;8.33;;;;;1.92;88.90;98252.03;5012294;28;45382;-75
2022/12/10 09:23:09;;;;;;;;;23.00;18.00;;;;;1.96;89.24;98283.16;5009720;28;45417;-75
2022/12/10 09:25:34;;;;;;;;;28.33;25.00;;;;;1.92;89.52;98237.31;4995847;28;45600;-75
2022/12/10 09:28:00;;;;;;;;;28.33;24.33;;;;;1.91;88.91;98246.00;5000000;28;46772;-75
2022/12/10 09:30:25;;;;;;;;;12.33;6.67;;;;;1.92;89.19;98263.28;4999987;28;45365;-75
2022/12/10 09:32:51;;;;;;;;;19.00;16.67;;;;;1.95;89.01;98264.97;5003061;28;45338;-75
2022/12/10 09:35:16;;;;;;;;;29.33;28.33;;;;;1.94;88.72;98264.13;5036371;28;45393;-75
2022/12/10 09:37:42;;;;;;;;;18.67;16.00;;;;;1.95;88.23;98270.19;4998599;28;45472;-75
2022/12/10 09:40:22;;;;;;;;;13.00;10.67;;;;;1.95;89.09;98323.03;5012608;28;45627;-75
2022/12/10 09:43:17;;;;;;;;;21.67;17.33;;;;;1.95;88.90;98289.22;5005272;28;45250;-76
2022/12/10 09:46:20;;;;;;;;;25.00;18.67;;;;;1.95;88.70;98288.38;5001745;28;45410;-76
2022/12/10 09:48:56;;;;;;;;;18.00;17.33;;;;;1.97;88.22;98256.28;5031958;28;46699;-76
2022/12/10 09:51:25;;;;;;;;;34.00;26.00;;;;;1.96;88.36;98258.91;5007613;28;45484;-76
2022/12/10 09:53:58;;;;;;;;;21.67;19.33;;;;;1.95;88.89;98270.19;5011763;28;45383;-76
2022/12/10 09:56:33;;;;;;;;;27.67;19.33;;;;;1.98;88.50;98298.72;4999485;28;45430;-76
2022/12/10 09:59:06;;;;;;;;;35.33;27.00;;;;;2.02;87.22;98284.75;4997463;28;46240;-76
2022/12/10 10:01:34;;;;;;;;;24.00;20.00;;;;;2.04;87.61;98239.66;5001172;28;45398;-76
2022/12/10 10:04:00;;;;;;;;;20.00;15.33;;;;;2.03;87.39;98299.47;4996946;28;45390;-76
2022/12/10 10:06:28;;;;;;;;;25.00;22.00;;;;;2.07;86.70;98294.19;5003844;28;45407;-76
2022/12/10 10:08:57;;;;;;;;;39.00;34.33;;;;;2.10;86.08;98275.06;5004078;28;45699;-76
2022/12/10 10:11:29;;;;;;;;;38.67;32.00;;;;;2.10;86.49;98290.66;5045241;28;45500;-76
2022/12/10 10:13:54;;;;;;;;;22.00;17.33;;;;;2.14;85.42;98274.13;5000425;28;45507;-76
2022/12/10 10:16:26;;;;;;;;;35.00;28.00;;;;;2.11;85.88;98289.78;4995352;28;45444;-76
2022/12/10 10:18:57;;;;;;;;;28.00;21.33;;;;;2.08;86.86;98274.25;5005472;28;45566;-76
2022/12/10 10:21:29;;;;;;;;;42.00;33.00;;;;;2.06;85.90;98335.81;5035080;28;45433;-76
2022/12/10 10:23:56;;;;;;;;;31.00;26.67;;;;;2.03;86.32;98295.13;5016459;28;45356;-77
2022/12/10 10:26:24;;;;;;;;;26.67;21.67;;;;;2.05;86.89;98297.69;5005905;28;45370;-77
2022/12/10 10:28:55;;;;;;;;;54.00;41.33;;;;;2.06;86.28;98294.22;4997614;28;45390;-76
2022/12/10 10:31:26;;;;;;;;;43.00;31.67;;;;;2.03;86.58;98282.13;4993779;28;45475;-76
2022/12/10 10:33:56;;;;;;;;;37.00;36.67;;;;;1.99;86.38;98311.69;5020989;28;45579;-76
2022/12/10 10:36:27;;;;;;;;;21.33;13.00;;;;;2.03;86.99;98276.94;4992801;28;45436;-76
2022/12/10 10:38:54;;;;;;;;;44.00;33.33;;;;;2.02;87.45;98289.94;4995992;28;45553;-77
2022/12/10 10:41:20;;;;;;;;;49.00;40.00;;;;;2.03;86.80;98279.53;5007046;28;45504;-76
2022/12/10 10:43:47;;;;;;;;;43.33;38.00;;;;;2.08;86.25;98303.69;5031864;28;45464;-76
2022/12/10 10:46:21;;;;;;;;;32.33;28.67;;;;;2.08;85.81;98339.22;5007071;28;45452;-77
2022/12/10 10:48:48;;;;;;;;;43.00;35.67;;;;;2.12;85.66;98291.50;5000524;28;46193;-77
2022/12/10 10:51:18;;;;;;;;;27.67;24.33;;;;;2.10;84.73;98270.72;5008975;28;45453;-77
2022/12/10 10:53:56;;;;;;;;;32.67;31.33;;;;;2.15;85.31;98298.38;5010403;28;45505;-76
2022/12/10 10:56:29;;;;;;;;;37.67;29.00;;;;;2.15;84.34;98295.78;4996749;28;45567;-76
2022/12/10 10:59:12;;;;;;;;;41.67;37.00;;;;;2.20;84.15;98293.94;5004171;28;47144;-75
2022/12/10 11:01:46;;;;;;;;;35.67;28.67;;;;;2.14;84.63;98317.47;5034724;28;45495;-75
2022/12/10 11:04:13;;;;;;;;;42.00;31.33;;;;;2.18;84.29;98306.97;5005260;28;45454;-76
2022/12/10 11:06:41;;;;;;;;;51.00;39.67;;;;;2.17;83.99;98294.03;5010866;28;45737;-75
2022/12/10 11:09:07;;;;;;;;;34.00;26.00;;;;;2.19;83.00;98302.63;5004389;28;45522;-76
2022/12/10 11:11:32;;;;;;;;;23.00;13.67;;;;;2.22;84.01;98320.75;5010459;28;45435;-76
2022/12/10 11:14:23;;;;;;;;;40.67;34.33;;;;;2.22;83.99;98302.56;5007492;28;45409;-76
2022/12/10 11:16:49;;;;;;;;;32.33;22.00;;;;;2.20;83.20;98281.78;5010967;28;45542;-76
2022/12/10 11:19:23;;;;;;;;;35.67;23.33;;;;;2.22;83.91;98305.16;5008104;28;45509;-76
2022/12/10 11:21:49;;;;;;;;;34.33;27.00;;;;;2.22;83.46;98331.16;5010464;28;45574;-76
2022/12/10 11:24:18;;;;;;;;;31.33;26.33;;;;;2.27;82.98;98308.53;5003323;28;45438;-76
2022/12/10 11:27:00;;;;;;;;;24.67;22.00;;;;;2.25;83.50;98372.72;5010105;28;45415;-76
2022/12/10 11:29:34;;;;;;;;;42.00;29.00;;;;;2.20;82.82;98379.72;4992717;28;46461;-76
2022/12/10 11:32:24;;;;;;;;;31.67;26.33;;;;;2.18;83.49;98319.97;5008214;28;45527;-76
2022/12/10 11:35:20;;;;;;;;;43.67;36.67;;;;;2.24;83.29;98317.25;5005230;28;45600;-77
2022/12/10 11:37:49;;;;;;;;;45.33;37.67;;;;;2.21;83.40;98303.44;5006646;28;45354;-77
2022/12/10 11:40:32;;;;;;;;;28.00;21.33;;;;;2.26;83.26;98322.44;5030408;28;47779;-77